createdAt,value
2022-11-15T00:01:26.117Z,31.23
2022-11-15T00:04:17.271Z,24.35
2022-11-15T00:07:08.434Z,26.45
2022-11-15T00:09:59.631Z,30.25
2022-11-15T00:12:50.765Z,26.30
2022-11-15T00:15:43.577Z,25.88
2022-11-15T00:18:34.905Z,25.55
2022-11-15T00:21:26.148Z,22.70
2022-11-15T00:24:17.382Z,24.70
2022-11-15T00:27:08.311Z,22.75
2022-11-15T00:29:59.001Z,23.87
2022-11-15T00:32:50.082Z,26.77
2022-11-15T00:35:40.792Z,30.43
2022-11-15T00:38:39.498Z,26.48
2022-11-15T00:41:30.458Z,27.02
2022-11-15T00:44:21.422Z,28.12
2022-11-15T00:47:12.569Z,25.05
2022-11-15T00:50:03.136Z,21.40
2022-11-15T00:52:53.890Z,23.85
2022-11-15T00:55:44.718Z,21.85
2022-11-15T00:58:35.992Z,22.65
2022-11-15T01:01:26.894Z,21.93
2022-11-15T01:04:17.883Z,19.92
2022-11-15T01:07:08.809Z,22.85
2022-11-15T01:09:59.905Z,22.25
2022-11-15T01:12:51.877Z,18.17
2022-11-15T01:15:44.307Z,23.65
2022-11-15T01:18:35.508Z,24.98
2022-11-15T01:21:26.880Z,22.48
2022-11-15T01:24:18.333Z,21.90
2022-11-15T01:27:10.509Z,20.08
2022-11-15T01:30:01.724Z,20.02
2022-11-15T01:32:53.686Z,21.20
2022-11-15T01:35:44.638Z,29.90
2022-11-15T01:38:35.483Z,27.67
2022-11-15T01:41:30.233Z,21.55
2022-11-15T01:44:48.835Z,17.45
2022-11-15T01:47:43.241Z,15.28
2022-11-15T01:50:36.058Z,18.10
2022-11-15T01:53:28.430Z,19.60
2022-11-15T01:56:26.028Z,18.62
2022-11-15T01:59:17.399Z,21.82
2022-11-15T02:02:09.157Z,21.17
2022-11-15T02:05:00.240Z,23.20
2022-11-15T02:07:52.362Z,19.95
2022-11-15T02:10:43.327Z,25.12
2022-11-15T02:13:34.605Z,24.32
2022-11-15T02:16:50.625Z,30.37
2022-11-15T02:19:59.071Z,26.75
2022-11-15T02:23:14.798Z,27.75
2022-11-15T02:26:35.679Z,22.35
2022-11-15T02:29:49.019Z,20.77
2022-11-15T02:32:49.962Z,19.57
2022-11-15T02:36:00.396Z,15.18
2022-11-15T02:39:07.674Z,15.13
2022-11-15T02:42:08.198Z,17.60
2022-11-15T02:45:00.675Z,14.10
2022-11-15T02:47:54.197Z,10.50
2022-11-15T02:50:46.358Z,11.38
2022-11-15T02:53:37.284Z,11.43
2022-11-15T02:56:28.413Z,12.78
2022-11-15T03:00:01.216Z,10.98
2022-11-15T03:03:34.454Z,13.62
2022-11-15T03:06:44.944Z,13.05
2022-11-15T03:09:46.331Z,16.48
2022-11-15T03:12:48.049Z,22.07
2022-11-15T03:15:43.007Z,17.05
2022-11-15T03:18:46.282Z,19.85
2022-11-15T03:21:38.521Z,19.57
2022-11-15T03:24:31.192Z,17.67
2022-11-15T03:27:25.492Z,13.05
2022-11-15T03:30:17.499Z,18.12
2022-11-15T03:33:09.044Z,15.43
2022-11-15T03:35:59.920Z,17.27
2022-11-15T03:38:51.906Z,18.95
2022-11-15T03:41:57.404Z,21.10
2022-11-15T03:45:14.545Z,15.90
2022-11-15T03:48:19.065Z,8.90
2022-11-15T03:51:09.938Z,9.80
2022-11-15T03:54:01.736Z,9.70
2022-11-15T03:56:53.115Z,9.68
2022-11-15T03:59:43.969Z,13.75
2022-11-15T04:02:34.910Z,14.68
2022-11-15T04:05:25.886Z,9.93
2022-11-15T04:08:18.349Z,10.45
2022-11-15T04:11:09.822Z,7.65
2022-11-15T04:14:00.755Z,14.93
2022-11-15T04:16:52.235Z,8.35
2022-11-15T04:20:02.156Z,13.83
2022-11-15T04:23:16.250Z,13.28
2022-11-15T04:26:14.136Z,34.30
2022-11-15T04:29:23.100Z,36.58
2022-11-15T04:32:14.099Z,51.30
2022-11-15T04:35:04.978Z,58.00
2022-11-15T04:37:56.053Z,59.42
2022-11-15T04:40:46.696Z,51.98
2022-11-15T04:43:38.578Z,52.40
2022-11-15T04:46:30.096Z,51.18
2022-11-15T04:49:21.400Z,37.28
2022-11-15T04:52:11.843Z,37.98
2022-11-15T04:55:07.881Z,23.27
2022-11-15T04:58:05.849Z,19.20
2022-11-15T05:00:57.189Z,14.18
2022-11-15T05:04:07.332Z,15.93
2022-11-15T05:06:58.274Z,10.80
2022-11-15T05:09:50.211Z,9.98
2022-11-15T05:12:41.262Z,22.25
2022-11-15T05:15:32.881Z,41.95
2022-11-15T05:18:24.064Z,36.90
2022-11-15T05:21:17.842Z,32.30
2022-11-15T05:24:09.099Z,23.42
2022-11-15T05:27:00.590Z,32.00
2022-11-15T05:29:52.380Z,17.20
2022-11-15T05:32:43.405Z,17.67
2022-11-15T05:35:44.786Z,16.85
2022-11-15T05:38:36.071Z,13.13
2022-11-15T05:41:37.670Z,12.90
2022-11-15T05:44:28.717Z,17.27
2022-11-15T05:47:25.655Z,11.57
2022-11-15T05:50:18.694Z,10.30
2022-11-15T05:53:09.744Z,11.90
2022-11-15T05:56:00.960Z,10.88
2022-11-15T05:58:56.763Z,11.43
2022-11-15T06:01:45.611Z,13.65
2022-11-15T06:04:36.996Z,37.25
2022-11-15T06:07:27.971Z,37.05
2022-11-15T06:10:19.062Z,31.00
2022-11-15T06:13:10.873Z,17.48
2022-11-15T06:16:02.122Z,14.15
2022-11-15T06:18:53.835Z,13.10
2022-11-15T06:21:45.736Z,12.93
2022-11-15T06:24:36.285Z,12.23
2022-11-15T06:27:27.018Z,17.60
2022-11-15T06:30:17.979Z,20.50
2022-11-15T06:33:10.261Z,20.97
2022-11-15T06:36:07.086Z,18.00
2022-11-15T06:38:57.428Z,13.62
2022-11-15T06:41:47.793Z,14.80
2022-11-15T06:44:39.793Z,15.10
2022-11-15T06:47:30.733Z,14.65
2022-11-15T06:50:21.519Z,17.12
2022-11-15T06:53:12.234Z,10.78
2022-11-15T06:56:06.228Z,11.28
2022-11-15T06:58:58.067Z,8.53
2022-11-15T07:01:48.880Z,17.85
2022-11-15T07:04:40.200Z,31.48
2022-11-15T07:07:31.507Z,29.23
2022-11-15T07:10:25.830Z,31.93
2022-11-15T07:13:17.486Z,17.82
2022-11-15T07:16:11.792Z,18.87
2022-11-15T07:19:03.537Z,14.65
2022-11-15T07:21:54.309Z,13.53
2022-11-15T07:24:45.615Z,12.73
2022-11-15T07:27:36.327Z,15.23
2022-11-15T07:30:28.206Z,14.73
2022-11-15T07:33:19.184Z,13.72
2022-11-15T07:36:11.428Z,10.93
2022-11-15T07:39:02.301Z,8.95
2022-11-15T07:41:55.116Z,11.05
2022-11-15T07:44:46.637Z,14.35
2022-11-15T07:47:38.300Z,8.53
2022-11-15T07:50:32.279Z,11.70
2022-11-15T07:53:23.195Z,14.60
2022-11-15T07:56:15.007Z,7.35
2022-11-15T07:59:06.241Z,12.85
2022-11-15T08:01:57.584Z,10.88
2022-11-15T08:04:50.411Z,18.62
2022-11-15T08:07:41.678Z,10.20
2022-11-15T08:10:37.734Z,11.00
2022-11-15T08:13:25.216Z,6.67
2022-11-15T08:16:16.635Z,5.85
2022-11-15T08:19:07.559Z,7.47
2022-11-15T08:21:58.246Z,10.58
2022-11-15T08:24:49.409Z,10.72
2022-11-15T08:27:41.803Z,10.58
2022-11-15T08:30:39.530Z,15.53
2022-11-15T08:33:31.425Z,12.75
2022-11-15T08:36:24.755Z,10.50
2022-11-15T08:39:15.974Z,9.53
2022-11-15T08:42:06.636Z,12.23
2022-11-15T08:44:57.632Z,10.35
2022-11-15T08:47:53.936Z,13.05
2022-11-15T08:50:42.165Z,16.80
2022-11-15T08:53:33.198Z,13.78
2022-11-15T08:56:25.133Z,10.53
2022-11-15T08:59:16.002Z,13.38
2022-11-15T09:02:07.448Z,14.60
2022-11-15T09:04:59.436Z,20.00
2022-11-15T09:07:52.306Z,11.63
2022-11-15T09:10:43.176Z,16.57
2022-11-15T09:13:33.995Z,19.50
2022-11-15T09:16:24.853Z,7.10
2022-11-15T09:19:16.732Z,8.73
2022-11-15T09:22:09.598Z,11.08
2022-11-15T09:25:00.030Z,13.70
2022-11-15T09:27:51.295Z,7.83
2022-11-15T09:30:42.198Z,13.20
2022-11-15T09:33:34.790Z,11.85
2022-11-15T09:36:29.777Z,12.53
2022-11-15T09:39:21.046Z,16.52
2022-11-15T09:42:40.333Z,10.05
2022-11-15T09:46:02.226Z,8.33
2022-11-15T09:48:55.362Z,6.87
2022-11-15T09:51:48.207Z,10.40
2022-11-15T09:54:53.249Z,8.60
2022-11-15T09:57:22.114Z,10.58
2022-11-15T10:00:45.930Z,6.37
2022-11-15T10:02:55.379Z,9.70
2022-11-15T10:05:30.412Z,7.65
2022-11-15T10:08:29.526Z,8.03
2022-11-15T10:13:50.589Z,9.20
2022-11-15T10:17:01.510Z,11.93
2022-11-15T10:19:42.268Z,6.45
2022-11-15T10:22:59.290Z,8.50
2022-11-15T10:25:35.265Z,8.98
2022-11-15T10:28:32.655Z,6.47
2022-11-15T10:31:13.047Z,8.60
2022-11-15T10:33:45.238Z,9.35
2022-11-15T10:36:26.946Z,9.15
2022-11-15T10:39:00.725Z,5.45
2022-11-15T10:41:38.141Z,12.82
2022-11-15T10:44:29.585Z,10.93
2022-11-15T10:47:11.092Z,9.30
2022-11-15T10:49:48.656Z,8.88
2022-11-15T10:52:23.600Z,9.43
2022-11-15T10:55:04.029Z,11.57
2022-11-15T10:57:40.015Z,12.58
2022-11-15T11:00:25.295Z,10.28
2022-11-15T11:03:11.378Z,18.98
2022-11-15T11:05:44.976Z,14.70
2022-11-15T11:08:25.216Z,11.17
2022-11-15T11:11:04.013Z,11.22
2022-11-15T11:13:40.632Z,14.80
2022-11-15T11:16:42.367Z,11.33
2022-11-15T11:19:34.801Z,11.25
2022-11-15T11:22:45.933Z,13.38
2022-11-15T11:25:33.237Z,13.65
2022-11-15T11:28:52.707Z,16.42
2022-11-15T11:31:55.018Z,12.98
2022-11-15T11:34:56.206Z,14.87
2022-11-15T11:37:54.811Z,16.65
2022-11-15T11:40:46.657Z,13.48
2022-11-15T11:43:54.614Z,15.63
2022-11-15T11:46:55.605Z,15.30
2022-11-15T11:49:55.069Z,12.25
2022-11-15T11:52:32.658Z,11.12
2022-11-15T11:55:33.833Z,11.90
2022-11-15T11:58:17.374Z,13.48
2022-11-15T12:01:00.628Z,23.30
2022-11-15T12:03:44.354Z,13.03
2022-11-15T12:06:46.773Z,13.43
2022-11-15T12:09:36.843Z,14.35
2022-11-15T12:12:38.987Z,12.35
2022-11-15T12:15:18.498Z,22.58
2022-11-15T12:17:51.921Z,10.98
2022-11-15T12:20:36.804Z,18.17
2022-11-15T12:23:23.273Z,10.80
2022-11-15T12:26:04.984Z,18.15
2022-11-15T12:29:10.277Z,11.05
2022-11-15T12:31:45.262Z,15.78
2022-11-15T12:34:44.396Z,18.35
2022-11-15T12:37:41.845Z,16.52
2022-11-15T12:40:34.912Z,15.18
2022-11-15T12:43:21.654Z,23.45
2022-11-15T12:45:55.676Z,17.40
2022-11-15T12:48:39.239Z,12.77
2022-11-15T12:51:12.595Z,12.53
2022-11-15T12:53:46.520Z,15.00
2022-11-15T12:56:22.579Z,16.25
2022-11-15T12:59:00.339Z,24.52
2022-11-15T13:01:43.909Z,20.35
2022-11-15T13:04:28.910Z,19.35
2022-11-15T13:07:08.878Z,21.17
2022-11-15T13:09:47.069Z,17.23
2022-11-15T13:12:36.334Z,23.98
2022-11-15T13:15:23.289Z,20.62
2022-11-15T13:17:58.744Z,21.27
2022-11-15T13:20:35.485Z,14.13
2022-11-15T13:23:16.749Z,20.92
2022-11-15T13:26:11.627Z,25.27
2022-11-15T13:28:55.057Z,18.75
2022-11-15T13:31:39.940Z,25.08
2022-11-15T13:34:50.540Z,23.35
2022-11-15T13:37:02.414Z,23.85
2022-11-15T13:39:38.652Z,31.57
2022-11-15T13:42:18.147Z,20.57
2022-11-15T13:45:03.462Z,29.77
2022-11-15T13:47:36.799Z,28.25
2022-11-15T13:50:14.711Z,33.58
2022-11-15T13:52:50.375Z,13.75
2022-11-15T13:55:25.399Z,21.15
2022-11-15T13:58:01.258Z,18.00
2022-11-15T14:00:44.524Z,19.70
2022-11-15T14:03:27.018Z,20.12
2022-11-15T14:06:21.898Z,15.32
2022-11-15T14:09:14.942Z,16.52
2022-11-15T14:11:56.652Z,18.92
2022-11-15T14:14:32.046Z,19.07
2022-11-15T14:17:04.836Z,26.17
2022-11-15T14:19:40.876Z,18.95
2022-11-15T14:22:23.641Z,17.52
2022-11-15T14:25:23.238Z,16.75
2022-11-15T14:28:29.268Z,14.43
2022-11-15T14:31:03.658Z,10.05
2022-11-15T14:33:41.361Z,17.07
2022-11-15T14:36:21.860Z,24.98
2022-11-15T14:38:55.522Z,25.08
2022-11-15T14:41:30.937Z,32.58
2022-11-15T14:44:04.878Z,29.32
2022-11-15T14:46:37.710Z,34.18
2022-11-15T14:49:10.793Z,31.40
2022-11-15T14:51:44.045Z,39.55
2022-11-15T14:54:17.327Z,32.55
2022-11-15T14:56:50.336Z,24.25
2022-11-15T14:59:23.563Z,24.00
2022-11-15T15:01:56.857Z,19.80
2022-11-15T15:04:29.742Z,18.65
2022-11-15T15:07:03.001Z,17.73
2022-11-15T15:09:35.868Z,13.60
2022-11-15T15:12:14.280Z,14.58
2022-11-15T15:14:48.779Z,14.75
2022-11-15T15:17:21.743Z,19.55
2022-11-15T15:19:54.657Z,26.60
2022-11-15T15:22:29.120Z,24.10
2022-11-15T15:25:02.276Z,22.07
2022-11-15T15:27:35.588Z,22.62
2022-11-15T15:30:10.570Z,21.02
2022-11-15T15:32:43.658Z,21.57
2022-11-15T15:35:18.555Z,20.72
2022-11-15T15:37:52.671Z,15.45
2022-11-15T15:42:58.484Z,20.40
2022-11-15T15:45:31.370Z,24.63
2022-11-15T15:48:04.411Z,20.70
2022-11-15T15:50:37.981Z,11.85
2022-11-15T15:53:11.767Z,19.55
2022-11-15T15:55:45.452Z,24.40
2022-11-15T15:58:18.204Z,24.00
2022-11-15T16:00:51.171Z,20.25
2022-11-15T16:03:24.960Z,26.57
2022-11-15T16:05:59.470Z,20.37
2022-11-15T16:08:47.495Z,26.85
2022-11-15T16:11:09.352Z,30.52
2022-11-15T16:13:42.225Z,32.80
2022-11-15T16:16:16.745Z,28.45
2022-11-15T16:18:49.834Z,28.20
2022-11-15T16:21:23.308Z,22.37
2022-11-15T16:23:56.541Z,22.42
2022-11-15T16:26:45.425Z,25.70
2022-11-15T16:29:19.110Z,23.07
2022-11-15T16:31:52.098Z,20.50
2022-11-15T16:34:30.028Z,20.45
2022-11-15T16:37:00.211Z,23.60
2022-11-15T16:39:34.310Z,19.50
2022-11-15T16:42:08.032Z,26.73
2022-11-15T16:44:41.259Z,37.80
2022-11-15T16:47:22.972Z,23.67
2022-11-15T16:49:56.252Z,21.95
2022-11-15T16:52:29.305Z,18.67
2022-11-15T16:55:02.925Z,28.25
2022-11-15T16:57:36.622Z,26.20
2022-11-15T17:00:15.451Z,24.55
2022-11-15T17:02:51.099Z,27.93
2022-11-15T17:05:27.337Z,27.27
2022-11-15T17:08:00.564Z,26.17
2022-11-15T17:10:33.808Z,34.20
2022-11-15T17:13:06.744Z,26.30
2022-11-15T17:15:39.780Z,24.85
2022-11-15T17:18:15.723Z,26.42
2022-11-15T17:20:48.892Z,24.55
2022-11-15T17:23:22.658Z,23.83
2022-11-15T17:26:23.917Z,19.92
2022-11-15T17:28:40.490Z,18.73
2022-11-15T17:31:15.462Z,20.23
2022-11-15T17:33:48.474Z,18.02
2022-11-15T17:36:21.374Z,22.22
2022-11-15T17:38:59.315Z,22.55
2022-11-15T17:41:29.872Z,17.30
2022-11-15T17:44:03.924Z,18.75
2022-11-15T17:46:37.439Z,21.45
2022-11-15T17:49:10.327Z,16.50
2022-11-15T17:51:46.167Z,22.70
2022-11-15T17:54:17.869Z,21.42
2022-11-15T17:56:51.866Z,18.20
2022-11-15T17:59:25.176Z,15.08
2022-11-15T18:01:58.480Z,18.40
2022-11-15T18:04:31.835Z,18.82
2022-11-15T18:07:04.967Z,13.00
2022-11-15T18:09:40.360Z,18.42
2022-11-15T18:12:14.524Z,17.95
2022-11-15T18:14:47.551Z,15.95
2022-11-15T18:17:21.157Z,12.65
2022-11-15T18:19:54.192Z,16.85
2022-11-15T18:22:27.734Z,24.82
2022-11-15T18:25:00.902Z,19.12
2022-11-15T18:27:34.378Z,17.80
2022-11-15T18:30:09.323Z,15.65
2022-11-15T18:32:43.328Z,18.90
2022-11-15T18:35:16.628Z,15.35
2022-11-15T18:37:49.932Z,16.00
2022-11-15T18:40:22.921Z,13.58
2022-11-15T18:42:56.304Z,18.37
2022-11-15T18:45:29.389Z,14.13
2022-11-15T18:48:02.312Z,17.77
2022-11-15T18:50:36.860Z,18.42
2022-11-15T18:53:10.455Z,16.48
2022-11-15T18:55:43.798Z,14.38
2022-11-15T18:58:16.773Z,18.42
2022-11-15T19:00:50.879Z,15.20
2022-11-15T19:03:24.786Z,19.53
2022-11-15T19:06:17.096Z,20.32
2022-11-15T19:08:53.371Z,15.93
2022-11-15T19:11:31.303Z,15.20
2022-11-15T19:14:08.564Z,16.40
2022-11-15T19:16:45.348Z,18.50
2022-11-15T19:19:28.010Z,26.23
2022-11-15T19:22:02.268Z,18.52
2022-11-15T19:24:51.690Z,20.62
2022-11-15T19:27:24.700Z,26.27
2022-11-15T19:29:57.597Z,22.87
2022-11-15T19:32:30.950Z,20.75
2022-11-15T19:35:05.074Z,25.00
2022-11-15T19:37:39.121Z,32.48
2022-11-15T19:40:13.698Z,31.07
2022-11-15T19:42:47.480Z,30.10
2022-11-15T19:45:20.318Z,45.52
2022-11-15T19:47:53.380Z,66.97
2022-11-15T19:50:26.451Z,67.35
2022-11-15T19:53:00.730Z,59.53
2022-11-15T19:58:05.496Z,76.65
2022-11-15T20:00:39.083Z,85.05
2022-11-15T20:03:12.051Z,86.10
2022-11-15T20:05:45.308Z,81.10
2022-11-15T20:08:18.659Z,95.80
2022-11-15T20:10:51.477Z,125.27
2022-11-15T20:13:24.735Z,85.83
2022-11-15T20:15:57.923Z,94.23
2022-11-15T20:18:32.064Z,74.92
2022-11-15T20:21:06.613Z,63.73
2022-11-15T20:23:39.853Z,113.17
2022-11-15T20:26:13.333Z,73.43
2022-11-15T20:28:48.432Z,92.78
2022-11-15T20:31:22.088Z,89.90
2022-11-15T20:33:55.310Z,78.55
2022-11-15T20:36:28.594Z,61.13
2022-11-15T20:39:02.253Z,50.10
2022-11-15T20:44:07.980Z,48.20
2022-11-15T20:46:41.070Z,49.77
2022-11-15T20:49:14.290Z,53.68
2022-11-15T20:51:48.238Z,58.02
2022-11-15T20:54:21.304Z,43.17
2022-11-15T20:56:55.404Z,50.83
2022-11-15T20:59:28.428Z,66.28
2022-11-15T21:02:18.546Z,96.10
2022-11-15T21:07:24.715Z,71.37
2022-11-15T21:10:15.226Z,54.73
2022-11-15T21:12:48.443Z,37.55
2022-11-15T21:15:21.441Z,38.67
2022-11-15T21:17:55.014Z,34.78
2022-11-15T21:20:28.343Z,38.83
2022-11-15T21:23:01.753Z,35.13
2022-11-15T21:25:35.860Z,34.83
2022-11-15T21:28:08.699Z,23.40
2022-11-15T21:30:41.755Z,27.82
2022-11-15T21:33:15.697Z,30.72
2022-11-15T21:35:48.708Z,45.78
2022-11-15T21:38:23.991Z,38.02
2022-11-15T21:40:57.466Z,35.52
2022-11-15T21:43:30.433Z,41.63
2022-11-15T21:46:07.437Z,63.15
2022-11-15T21:48:40.875Z,73.05
2022-11-15T21:51:14.237Z,55.25
2022-11-15T21:53:47.240Z,41.63
2022-11-15T21:56:20.635Z,39.18
2022-11-15T21:58:54.797Z,51.90
2022-11-15T22:01:47.129Z,48.92
2022-11-15T22:04:21.963Z,61.10
2022-11-15T22:06:55.293Z,63.02
2022-11-15T22:09:28.415Z,73.70
2022-11-15T22:12:01.601Z,66.53
2022-11-15T22:14:36.052Z,89.90
2022-11-15T22:17:15.354Z,84.10
2022-11-15T22:19:52.883Z,78.00
2022-11-15T22:22:23.200Z,74.62
2022-11-15T22:24:57.798Z,93.10
2022-11-15T22:27:32.526Z,78.30
2022-11-15T22:30:06.655Z,82.10
2022-11-15T22:32:40.654Z,66.42
2022-11-15T22:35:14.138Z,67.33
2022-11-15T22:37:47.322Z,73.17
2022-11-15T22:40:20.774Z,73.13
2022-11-15T22:42:54.163Z,69.33
2022-11-15T22:45:27.455Z,69.53
2022-11-15T22:48:00.833Z,76.75
2022-11-15T22:50:34.230Z,69.12
2022-11-15T22:53:07.388Z,68.33
2022-11-15T22:55:42.025Z,57.45
2022-11-15T22:58:15.712Z,66.95
2022-11-15T23:00:52.274Z,67.45
2022-11-15T23:03:28.473Z,76.37
2022-11-15T23:06:07.589Z,69.20
2022-11-15T23:08:41.213Z,63.48
2022-11-15T23:11:32.769Z,73.75
2022-11-15T23:14:07.376Z,64.12
2022-11-15T23:16:40.859Z,72.70
2022-11-15T23:19:15.357Z,59.88
2022-11-15T23:33:17.299Z,61.02
2022-11-15T23:35:57.644Z,56.53
2022-11-15T23:38:30.934Z,62.45
2022-11-15T23:41:05.781Z,65.00
2022-11-15T23:43:38.889Z,52.15
2022-11-15T23:46:12.043Z,55.07
2022-11-15T23:48:46.032Z,48.33
2022-11-15T23:51:19.361Z,50.50
2022-11-15T23:53:52.548Z,43.98
2022-11-15T23:56:25.689Z,48.23
2022-11-15T23:58:59.922Z,45.45
